WRLRD41 KNIP-KNIP
Flight info
| Callsign | WRLRD41 |
|---|---|
| Flight time | 0h 57m |
| Altitude | 3000 |
| Route | VFR |
| Aircraft | VF35/M-SDFIRY/LB1 |
Departure
| Time | 2026-04-25 18:52 |
|---|---|
| Airport | Jacksonville Naval Air Station (Towers Field) (KNIP) |
Arrival
| Time | 2026-04-25 19:50 |
|---|---|
| Airport | Jacksonville Naval Air Station (Towers Field) (KNIP) |
| Time | Latitude | Longitude | Altitude | Speed | Heading |
|---|---|---|---|---|---|
| 2026-04-25 18:52 | 30.12869 | -81.68077 | 1445 ft | 378 kts | 173° |
| 2026-04-25 18:52 | 30.10154 | -81.67607 | 1352 ft | 406 kts | 174° |
| 2026-04-25 18:52 | 30.07194 | -81.67517 | 860 ft | 436 kts | 180° |
| 2026-04-25 18:53 | 30.04188 | -81.67496 | 510 ft | 427 kts | 179° |
| 2026-04-25 18:53 | 30.01584 | -81.66612 | 566 ft | 392 kts | 138° |
| 2026-04-25 18:53 | 29.99593 | -81.64267 | 1049 ft | 420 kts | 133° |
| 2026-04-25 18:53 | 29.97657 | -81.61770 | 1347 ft | 406 kts | 133° |
| 2026-04-25 18:54 | 29.93428 | -81.60530 | 565 ft | 298 kts | 187° |
| 2026-04-25 18:54 | 29.91521 | -81.60695 | 721 ft | 248 kts | 179° |
| 2026-04-25 18:54 | 29.89976 | -81.60649 | 839 ft | 197 kts | 178° |
| 2026-04-25 18:55 | 29.88817 | -81.60568 | 819 ft | 141 kts | 174° |
| 2026-04-25 18:55 | 29.87681 | -81.60355 | 816 ft | 196 kts | 168° |
| 2026-04-25 18:55 | 29.86142 | -81.59937 | 1028 ft | 251 kts | 169° |
| 2026-04-25 18:55 | 29.84404 | -81.59445 | 858 ft | 252 kts | 163° |
| 2026-04-25 18:56 | 29.82827 | -81.58874 | 481 ft | 221 kts | 160° |
| 2026-04-25 18:56 | 29.81640 | -81.58260 | 660 ft | 151 kts | 152° |
| 2026-04-25 18:56 | 29.80738 | -81.57735 | 540 ft | 159 kts | 153° |
| 2026-04-25 18:56 | 29.79409 | -81.56944 | 734 ft | 277 kts | 152° |
| 2026-04-25 18:57 | 29.77556 | -81.55734 | 675 ft | 296 kts | 163° |
| 2026-04-25 18:57 | 29.75843 | -81.56176 | 419 ft | 226 kts | 199° |
| 2026-04-25 18:57 | 29.74527 | -81.56648 | 556 ft | 172 kts | 193° |
| 2026-04-25 18:57 | 29.74176 | -81.56745 | 534 ft | 151 kts | 193° |
| 2026-04-25 18:58 | 29.72384 | -81.57428 | 454 ft | 198 kts | 205° |
| 2026-04-25 18:58 | 29.71176 | -81.59487 | 386 ft | 180 kts | 257° |
| 2026-04-25 18:58 | 29.70880 | -81.61002 | 540 ft | 176 kts | 256° |
| 2026-04-25 18:59 | 29.69703 | -81.63340 | 519 ft | 177 kts | 222° |
| 2026-04-25 18:59 | 29.67951 | -81.65021 | 507 ft | 152 kts | 218° |
| 2026-04-25 19:00 | 29.66237 | -81.66598 | 521 ft | 141 kts | 219° |
| 2026-04-25 19:00 | 29.65386 | -81.67374 | 552 ft | 148 kts | 218° |
| 2026-04-25 19:01 | 29.63704 | -81.68943 | 513 ft | 164 kts | 219° |
| 2026-04-25 19:01 | 29.62833 | -81.69765 | 511 ft | 143 kts | 218° |
| 2026-04-25 19:01 | 29.62037 | -81.70480 | 506 ft | 170 kts | 218° |
| 2026-04-25 19:01 | 29.61043 | -81.71348 | 534 ft | 165 kts | 216° |
| 2026-04-25 19:02 | 29.59284 | -81.72786 | 532 ft | 159 kts | 216° |
| 2026-04-25 19:02 | 29.58477 | -81.73457 | 419 ft | 122 kts | 214° |
| 2026-04-25 19:02 | 29.57559 | -81.73874 | 486 ft | 191 kts | 196° |
| 2026-04-25 19:03 | 29.55932 | -81.74294 | 480 ft | 159 kts | 192° |
| 2026-04-25 19:03 | 29.54309 | -81.74666 | 417 ft | 165 kts | 192° |
| 2026-04-25 19:03 | 29.52894 | -81.75018 | 538 ft | 231 kts | 194° |
| 2026-04-25 19:04 | 29.50406 | -81.75804 | 494 ft | 163 kts | 196° |
| 2026-04-25 19:04 | 29.49352 | -81.76142 | 494 ft | 145 kts | 194° |
| 2026-04-25 19:05 | 29.47389 | -81.77098 | 406 ft | 117 kts | 242° |
| 2026-04-25 19:05 | 29.48036 | -81.78243 | 449 ft | 77 kts | 37° |
| 2026-04-25 19:05 | 29.48363 | -81.77909 | 418 ft | 62 kts | 48° |
| 2026-04-25 19:06 | 29.48596 | -81.77564 | 329 ft | 52 kts | 55° |
| 2026-04-25 19:06 | 29.48920 | -81.76968 | 87 ft | 32 kts | 80° |
| 2026-04-25 19:06 | 29.48945 | -81.76796 | 32 ft | 13 kts | 83° |
| 2026-04-25 19:07 | 29.48948 | -81.76720 | 32 ft | 0 kts | 112° |
| 2026-04-25 19:09 | 29.48948 | -81.76719 | 33 ft | 0 kts | 114° |
| 2026-04-25 19:14 | 29.48744 | -81.76346 | 323 ft | 118 kts | 146° |
| 2026-04-25 19:15 | 29.47676 | -81.76314 | 1452 ft | 198 kts | 200° |
| 2026-04-25 19:15 | 29.46706 | -81.77954 | 1184 ft | 293 kts | 262° |
| 2026-04-25 19:15 | 29.46251 | -81.80036 | 1010 ft | 245 kts | 231° |
| 2026-04-25 19:15 | 29.44777 | -81.80731 | 1128 ft | 226 kts | 189° |
| 2026-04-25 19:16 | 29.44616 | -81.81941 | 931 ft | 235 kts | 352° |
| 2026-04-25 19:16 | 29.46568 | -81.81509 | 1332 ft | 309 kts | 13° |
| 2026-04-25 19:16 | 29.48594 | -81.80896 | 1700 ft | 303 kts | 19° |
| 2026-04-25 19:16 | 29.48543 | -81.79514 | 788 ft | 262 kts | 161° |
| 2026-04-25 19:17 | 29.46944 | -81.78860 | 1092 ft | 243 kts | 162° |
| 2026-04-25 19:17 | 29.45239 | -81.78191 | 1111 ft | 275 kts | 163° |
| 2026-04-25 19:17 | 29.43330 | -81.77452 | 1241 ft | 295 kts | 162° |
| 2026-04-25 19:17 | 29.41516 | -81.76750 | 1257 ft | 259 kts | 162° |
| 2026-04-25 19:18 | 29.39840 | -81.76188 | 758 ft | 236 kts | 167° |
| 2026-04-25 19:18 | 29.38409 | -81.75775 | 745 ft | 187 kts | 168° |
| 2026-04-25 19:18 | 29.37339 | -81.75594 | 709 ft | 123 kts | 177° |
| 2026-04-25 19:18 | 29.36371 | -81.75540 | 469 ft | 195 kts | 178° |
| 2026-04-25 19:19 | 29.34990 | -81.75368 | 556 ft | 195 kts | 168° |
| 2026-04-25 19:19 | 29.33818 | -81.75086 | 464 ft | 147 kts | 171° |
| 2026-04-25 19:19 | 29.32596 | -81.74898 | 408 ft | 197 kts | 172° |
| 2026-04-25 19:19 | 29.31749 | -81.74877 | 308 ft | 174 kts | 176° |
| 2026-04-25 19:20 | 29.30419 | -81.74608 | 277 ft | 161 kts | 172° |
| 2026-04-25 19:20 | 29.29338 | -81.74520 | 308 ft | 148 kts | 176° |
| 2026-04-25 19:20 | 29.28239 | -81.74333 | 304 ft | 161 kts | 169° |
| 2026-04-25 19:20 | 29.27342 | -81.74137 | 301 ft | 97 kts | 172° |
| 2026-04-25 19:21 | 29.26327 | -81.73961 | 395 ft | 165 kts | 173° |
| 2026-04-25 19:21 | 29.24313 | -81.73598 | 321 ft | 145 kts | 172° |
| 2026-04-25 19:21 | 29.23309 | -81.73427 | 386 ft | 194 kts | 171° |
| 2026-04-25 19:22 | 29.22026 | -81.73171 | 661 ft | 173 kts | 171° |
| 2026-04-25 19:22 | 29.21120 | -81.72982 | 710 ft | 96 kts | 171° |
| 2026-04-25 19:22 | 29.19450 | -81.72563 | 539 ft | 180 kts | 142° |
| 2026-04-25 19:23 | 29.19344 | -81.71362 | 670 ft | 205 kts | 21° |
| 2026-04-25 19:23 | 29.18348 | -81.72533 | 660 ft | 224 kts | 117° |
| 2026-04-25 19:23 | 29.17128 | -81.72231 | 361 ft | 173 kts | 179° |
| 2026-04-25 19:24 | 29.15974 | -81.72145 | 337 ft | 179 kts | 175° |
| 2026-04-25 19:24 | 29.14906 | -81.72005 | 366 ft | 118 kts | 173° |
| 2026-04-25 19:24 | 29.13084 | -81.71753 | 371 ft | 137 kts | 174° |
| 2026-04-25 19:25 | 29.11106 | -81.71528 | 351 ft | 117 kts | 175° |
| 2026-04-25 19:25 | 29.10347 | -81.71312 | 321 ft | 122 kts | 146° |
| 2026-04-25 19:25 | 29.09961 | -81.70581 | 372 ft | 99 kts | 84° |
| 2026-04-25 19:26 | 29.10451 | -81.69936 | 396 ft | 122 kts | 21° |
| 2026-04-25 19:26 | 29.11351 | -81.69600 | 451 ft | 113 kts | 355° |
| 2026-04-25 19:26 | 29.11634 | -81.70121 | 445 ft | 95 kts | 257° |
| 2026-04-25 19:26 | 29.11434 | -81.70758 | 406 ft | 78 kts | 240° |
| 2026-04-25 19:27 | 29.11219 | -81.71248 | 370 ft | 56 kts | 239° |
| 2026-04-25 19:27 | 29.11090 | -81.71576 | 340 ft | 87 kts | 244° |
| 2026-04-25 19:27 | 29.11212 | -81.72412 | 335 ft | 85 kts | 297° |
| 2026-04-25 19:27 | 29.11730 | -81.72473 | 334 ft | 91 kts | 31° |
| 2026-04-25 19:28 | 29.12185 | -81.72126 | 310 ft | 54 kts | 24° |
| 2026-04-25 19:28 | 29.12430 | -81.72116 | 225 ft | 28 kts | 13° |
| 2026-04-25 19:28 | 29.12534 | -81.71969 | 193 ft | 25 kts | 97° |
| 2026-04-25 19:28 | 29.12489 | -81.71805 | 216 ft | 28 kts | 122° |
| 2026-04-25 19:29 | 29.12242 | -81.71152 | 513 ft | 127 kts | 103° |
| 2026-04-25 19:29 | 29.12135 | -81.70436 | 476 ft | 63 kts | 120° |
| 2026-04-25 19:29 | 29.12110 | -81.70107 | 370 ft | 23 kts | 78° |
| 2026-04-25 19:29 | 29.12068 | -81.69972 | 197 ft | 18 kts | 159° |
| 2026-04-25 19:30 | 29.11981 | -81.70005 | 136 ft | 0 kts | 259° |
| 2026-04-25 19:32 | 29.11978 | -81.70013 | 137 ft | 16 kts | 240° |
| 2026-04-25 19:32 | 29.11920 | -81.70092 | 229 ft | 57 kts | 220° |
| 2026-04-25 19:32 | 29.11304 | -81.70995 | 848 ft | 213 kts | 265° |
| 2026-04-25 19:32 | 29.12029 | -81.71540 | 948 ft | 260 kts | 15° |
| 2026-04-25 19:33 | 29.15293 | -81.70158 | 1542 ft | 465 kts | 30° |
| 2026-04-25 19:33 | 29.17688 | -81.68786 | 3017 ft | 352 kts | 25° |
| 2026-04-25 19:33 | 29.20008 | -81.67386 | 2926 ft | 405 kts | 27° |
| 2026-04-25 19:33 | 29.22689 | -81.65613 | 1965 ft | 478 kts | 28° |
| 2026-04-25 19:34 | 29.25722 | -81.63905 | 2110 ft | 492 kts | 14° |
| 2026-04-25 19:34 | 29.29191 | -81.63702 | 1651 ft | 498 kts | 351° |
| 2026-04-25 19:34 | 29.32638 | -81.64454 | 1432 ft | 536 kts | 345° |
| 2026-04-25 19:34 | 29.35972 | -81.65321 | 1139 ft | 448 kts | 349° |
| 2026-04-25 19:35 | 29.38869 | -81.65724 | 1298 ft | 401 kts | 354° |
| 2026-04-25 19:35 | 29.41570 | -81.65513 | 600 ft | 377 kts | 5° |
| 2026-04-25 19:35 | 29.43071 | -81.66954 | 501 ft | 261 kts | 285° |
| 2026-04-25 19:35 | 29.44279 | -81.68107 | 408 ft | 228 kts | 346° |
| 2026-04-25 19:36 | 29.45828 | -81.68491 | 590 ft | 229 kts | 348° |
| 2026-04-25 19:36 | 29.47259 | -81.68100 | 347 ft | 233 kts | 34° |
| 2026-04-25 19:36 | 29.48774 | -81.68044 | 291 ft | 224 kts | 317° |
| 2026-04-25 19:36 | 29.50160 | -81.68062 | 442 ft | 219 kts | 9° |
| 2026-04-25 19:37 | 29.51755 | -81.67857 | 233 ft | 243 kts | 345° |
| 2026-04-25 19:37 | 29.53199 | -81.68650 | 225 ft | 230 kts | 320° |
| 2026-04-25 19:37 | 29.53903 | -81.70092 | 368 ft | 223 kts | 317° |
| 2026-04-25 19:37 | 29.55362 | -81.70070 | 317 ft | 218 kts | 6° |
| 2026-04-25 19:38 | 29.56758 | -81.69457 | 242 ft | 220 kts | 35° |
| 2026-04-25 19:38 | 29.58531 | -81.68453 | 658 ft | 343 kts | 346° |
| 2026-04-25 19:38 | 29.59500 | -81.66829 | 756 ft | 277 kts | 76° |
| 2026-04-25 19:38 | 29.59397 | -81.64424 | 1817 ft | 341 kts | 111° |
| 2026-04-25 19:39 | 29.59437 | -81.61896 | 1618 ft | 324 kts | 59° |
| 2026-04-25 19:39 | 29.60800 | -81.59954 | 1429 ft | 289 kts | 11° |
| 2026-04-25 19:39 | 29.62610 | -81.59467 | 867 ft | 275 kts | 24° |
| 2026-04-25 19:39 | 29.64077 | -81.60081 | 657 ft | 221 kts | 271° |
| 2026-04-25 19:40 | 29.63850 | -81.61425 | 169 ft | 176 kts | 294° |
| 2026-04-25 19:40 | 29.65267 | -81.62190 | 434 ft | 292 kts | 342° |
| 2026-04-25 19:40 | 29.67725 | -81.63002 | 733 ft | 459 kts | 339° |
| 2026-04-25 19:40 | 29.70398 | -81.62322 | 1114 ft | 396 kts | 82° |
| 2026-04-25 19:41 | 29.70839 | -81.59507 | 1517 ft | 328 kts | 68° |
| 2026-04-25 19:41 | 29.71956 | -81.57349 | 1165 ft | 313 kts | 34° |
| 2026-04-25 19:41 | 29.73971 | -81.56260 | 1013 ft | 330 kts | 20° |
| 2026-04-25 19:41 | 29.74662 | -81.55982 | 949 ft | 327 kts | 16° |
| 2026-04-25 19:42 | 29.78569 | -81.55798 | 737 ft | 355 kts | 343° |
| 2026-04-25 19:42 | 29.80985 | -81.56645 | 825 ft | 367 kts | 340° |
| 2026-04-25 19:42 | 29.83453 | -81.57579 | 953 ft | 376 kts | 340° |
| 2026-04-25 19:42 | 29.85943 | -81.58551 | 1168 ft | 380 kts | 339° |
| 2026-04-25 19:43 | 29.88474 | -81.59560 | 1290 ft | 385 kts | 341° |
| 2026-04-25 19:43 | 29.91001 | -81.60350 | 1598 ft | 359 kts | 6° |
| 2026-04-25 19:43 | 29.93409 | -81.59924 | 1463 ft | 338 kts | 2° |
| 2026-04-25 19:43 | 29.95691 | -81.60181 | 1329 ft | 322 kts | 338° |
| 2026-04-25 19:44 | 29.97548 | -81.61534 | 1011 ft | 312 kts | 316° |
| 2026-04-25 19:44 | 29.99077 | -81.63207 | 1065 ft | 292 kts | 313° |
| 2026-04-25 19:44 | 30.00528 | -81.64741 | 1272 ft | 269 kts | 317° |
| 2026-04-25 19:44 | 30.01883 | -81.66093 | 1566 ft | 252 kts | 318° |
| 2026-04-25 19:45 | 30.03339 | -81.67050 | 1714 ft | 233 kts | 335° |
| 2026-04-25 19:45 | 30.04775 | -81.67673 | 1984 ft | 211 kts | 335° |
| 2026-04-25 19:45 | 30.06154 | -81.68260 | 1828 ft | 209 kts | 339° |
| 2026-04-25 19:45 | 30.07462 | -81.68628 | 2080 ft | 177 kts | 350° |
| 2026-04-25 19:46 | 30.08659 | -81.68643 | 1966 ft | 175 kts | 3° |
| 2026-04-25 19:46 | 30.09930 | -81.68551 | 1590 ft | 194 kts | 0° |
| 2026-04-25 19:46 | 30.11271 | -81.68605 | 1310 ft | 197 kts | 352° |
| 2026-04-25 19:46 | 30.12867 | -81.69256 | 1210 ft | 289 kts | 316° |
| 2026-04-25 19:47 | 30.14060 | -81.71138 | 1873 ft | 273 kts | 305° |
| 2026-04-25 19:47 | 30.15129 | -81.72961 | 1840 ft | 274 kts | 301° |
| 2026-04-25 19:47 | 30.16183 | -81.74756 | 1804 ft | 267 kts | 308° |
| 2026-04-25 19:47 | 30.17501 | -81.76245 | 1607 ft | 257 kts | 317° |
| 2026-04-25 19:48 | 30.18890 | -81.77286 | 1249 ft | 211 kts | 332° |
| 2026-04-25 19:48 | 30.20144 | -81.77714 | 669 ft | 169 kts | 353° |
| 2026-04-25 19:48 | 30.21316 | -81.77361 | 638 ft | 211 kts | 34° |
| 2026-04-25 19:48 | 30.22284 | -81.75843 | 775 ft | 230 kts | 75° |
| 2026-04-25 19:49 | 30.22607 | -81.74328 | 593 ft | 166 kts | 85° |
| 2026-04-25 19:49 | 30.22665 | -81.73919 | 503 ft | 160 kts | 86° |
| 2026-04-25 19:49 | 30.22961 | -81.71217 | 343 ft | 188 kts | 79° |
| 2026-04-25 19:49 | 30.23165 | -81.69813 | 141 ft | 194 kts | 93° |
| 2026-04-25 19:50 | 30.23149 | -81.67803 | 22 ft | 6 kts | 135° |
| 2026-04-25 19:50 | 30.23013 | -81.67803 | 20 ft | 0 kts | 185° |
| 2026-04-25 19:52 | 30.22962 | -81.67691 | 22 ft | 27 kts | 45° |
| 2026-04-25 19:52 | 30.22985 | -81.67565 | 25 ft | 0 kts | 182° |